createdAt,value
2018-03-15T00:01:45.823Z,6.70
2018-03-15T00:04:13.860Z,4.67
2018-03-15T00:06:41.876Z,7.37
2018-03-15T00:09:10.526Z,9.23
2018-03-15T00:11:39.307Z,5.00
2018-03-15T00:14:08.348Z,3.33
2018-03-15T00:16:38.656Z,4.43
2018-03-15T00:19:08.374Z,8.77
2018-03-15T00:21:36.269Z,5.50
2018-03-15T00:24:06.009Z,5.20
2018-03-15T00:26:35.852Z,6.70
2018-03-15T00:29:03.851Z,3.43
2018-03-15T00:31:31.812Z,4.70
2018-03-15T00:33:59.591Z,4.33
2018-03-15T00:36:28.577Z,5.43
2018-03-15T00:38:56.522Z,3.80
2018-03-15T00:41:25.204Z,5.53
2018-03-15T00:43:53.410Z,8.10
2018-03-15T00:46:22.215Z,5.97
2018-03-15T00:48:51.080Z,3.23
2018-03-15T00:51:20.656Z,7.70
2018-03-15T00:53:48.662Z,5.53
2018-03-15T00:56:16.873Z,4.93
2018-03-15T00:58:45.111Z,6.00
2018-03-15T01:01:16.643Z,4.93
2018-03-15T01:03:45.343Z,4.20
2018-03-15T01:06:13.281Z,5.17
2018-03-15T01:08:43.018Z,5.00
2018-03-15T01:11:11.897Z,4.50
2018-03-15T01:13:40.032Z,4.50
2018-03-15T01:16:08.158Z,5.37
2018-03-15T01:18:35.925Z,3.50
2018-03-15T01:21:06.133Z,3.27
2018-03-15T01:23:33.798Z,3.63
2018-03-15T01:26:01.731Z,4.60
2018-03-15T01:28:30.054Z,3.67
2018-03-15T01:30:59.376Z,4.27
2018-03-15T01:33:28.137Z,6.63
2018-03-15T01:35:59.415Z,3.83
2018-03-15T01:38:27.760Z,2.73
2018-03-15T01:40:55.774Z,3.90
2018-03-15T01:43:23.798Z,3.60
2018-03-15T01:45:51.997Z,5.20
2018-03-15T01:48:19.735Z,3.97
2018-03-15T01:50:47.642Z,5.57
2018-03-15T01:53:15.466Z,3.47
2018-03-15T01:55:43.326Z,4.27
2018-03-15T01:58:11.450Z,3.40
2018-03-15T02:00:41.341Z,5.27
2018-03-15T02:03:09.179Z,2.47
2018-03-15T02:05:36.991Z,3.90
2018-03-15T02:08:04.933Z,2.90
2018-03-15T02:10:33.629Z,3.50
2018-03-15T02:13:01.582Z,4.97
2018-03-15T02:15:29.754Z,3.00
2018-03-15T02:17:57.633Z,2.80
2018-03-15T02:20:25.405Z,2.87
2018-03-15T02:22:53.663Z,3.10
2018-03-15T02:25:21.464Z,3.07
2018-03-15T02:27:49.295Z,2.70
2018-03-15T02:30:17.827Z,3.70
2018-03-15T02:32:46.057Z,4.23
2018-03-15T02:35:13.746Z,3.23
2018-03-15T02:37:41.483Z,3.70
2018-03-15T02:40:09.471Z,5.17
2018-03-15T02:42:37.751Z,2.77
2018-03-15T02:45:06.040Z,4.13
2018-03-15T02:47:34.080Z,3.07
2018-03-15T02:50:01.965Z,3.00
2018-03-15T02:52:29.842Z,5.10
2018-03-15T02:54:58.093Z,2.50
2018-03-15T02:57:26.082Z,4.40
2018-03-15T02:59:53.820Z,3.53
2018-03-15T03:02:23.391Z,2.83
2018-03-15T03:04:51.144Z,3.60
2018-03-15T03:07:19.093Z,2.73
2018-03-15T03:09:47.963Z,5.80
2018-03-15T03:12:16.414Z,5.07
2018-03-15T03:14:44.210Z,4.80
2018-03-15T03:17:11.989Z,3.60
2018-03-15T03:19:40.537Z,3.87
2018-03-15T03:22:09.432Z,6.10
2018-03-15T03:24:37.250Z,3.70
2018-03-15T03:27:04.960Z,5.97
2018-03-15T03:29:32.611Z,2.83
2018-03-15T03:32:01.148Z,3.57
2018-03-15T03:34:28.937Z,2.30
2018-03-15T03:36:57.384Z,3.80
2018-03-15T03:39:25.184Z,2.83
2018-03-15T03:41:53.000Z,4.00
2018-03-15T03:44:20.718Z,4.50
2018-03-15T03:46:48.440Z,2.67
2018-03-15T03:49:16.603Z,3.07
2018-03-15T03:51:46.390Z,3.03
2018-03-15T03:54:15.259Z,3.10
2018-03-15T03:56:43.221Z,2.50
2018-03-15T03:59:11.514Z,3.07
2018-03-15T04:01:40.297Z,3.30
2018-03-15T04:04:09.177Z,3.10
2018-03-15T04:06:41.416Z,4.67
2018-03-15T04:09:10.033Z,7.60
2018-03-15T04:11:37.906Z,2.40
2018-03-15T04:14:05.612Z,4.03
2018-03-15T04:16:33.506Z,3.30
2018-03-15T04:19:01.301Z,4.63
2018-03-15T04:21:29.004Z,2.50
2018-03-15T04:23:57.025Z,3.07
2018-03-15T04:26:25.950Z,2.50
2018-03-15T04:28:54.444Z,2.87
2018-03-15T04:31:22.283Z,3.47
2018-03-15T04:33:51.022Z,2.50
2018-03-15T04:36:23.749Z,2.60
2018-03-15T04:38:52.357Z,2.70
2018-03-15T04:41:20.208Z,2.57
2018-03-15T04:43:48.186Z,2.43
2018-03-15T04:46:16.124Z,2.20
2018-03-15T04:48:44.521Z,2.33
2018-03-15T04:51:12.204Z,2.30
2018-03-15T04:53:39.913Z,2.27
2018-03-15T04:56:08.502Z,2.53
2018-03-15T04:58:36.806Z,3.23
2018-03-15T05:01:04.588Z,3.40
2018-03-15T05:03:33.996Z,3.23
2018-03-15T05:06:01.672Z,2.43
2018-03-15T05:08:29.488Z,3.80
2018-03-15T05:10:57.118Z,2.30
2018-03-15T05:13:24.896Z,2.37
2018-03-15T05:15:52.963Z,3.33
2018-03-15T05:18:20.895Z,2.43
2018-03-15T05:20:48.768Z,2.27
2018-03-15T05:23:16.535Z,3.13
2018-03-15T05:25:44.473Z,5.50
2018-03-15T05:28:12.136Z,2.00
2018-03-15T05:30:40.523Z,2.23
2018-03-15T05:33:08.243Z,2.33
2018-03-15T05:35:36.152Z,1.80
2018-03-15T05:38:03.945Z,2.00
2018-03-15T05:40:32.180Z,2.83
2018-03-15T05:42:59.916Z,2.30
2018-03-15T05:45:28.500Z,2.40
2018-03-15T05:47:56.987Z,2.20
2018-03-15T05:50:24.924Z,3.50
2018-03-15T05:52:53.431Z,2.30
2018-03-15T05:55:21.314Z,1.80
2018-03-15T05:57:49.040Z,2.20
2018-03-15T06:00:17.372Z,2.20
2018-03-15T06:02:46.163Z,2.40
2018-03-15T06:05:14.413Z,4.40
2018-03-15T06:07:43.016Z,3.80
2018-03-15T06:10:11.539Z,4.03
2018-03-15T06:12:39.581Z,3.50
2018-03-15T06:15:08.372Z,2.50
2018-03-15T06:17:36.212Z,2.30
2018-03-15T06:20:04.409Z,3.20
2018-03-15T06:22:32.668Z,3.37
2018-03-15T06:25:00.434Z,5.63
2018-03-15T06:27:28.865Z,3.10
2018-03-15T06:29:56.662Z,3.13
2018-03-15T06:32:24.785Z,1.83
2018-03-15T06:34:53.363Z,2.30
2018-03-15T06:37:21.815Z,1.70
2018-03-15T06:39:49.586Z,2.03
2018-03-15T06:42:17.224Z,2.60
2018-03-15T06:44:44.907Z,2.40
2018-03-15T06:47:12.734Z,2.40
2018-03-15T06:49:41.095Z,2.10
2018-03-15T06:52:09.052Z,2.93
2018-03-15T06:54:37.085Z,2.63
2018-03-15T06:57:06.032Z,1.97
2018-03-15T06:59:34.017Z,2.30
2018-03-15T07:02:01.916Z,2.13
2018-03-15T07:04:29.688Z,2.93
2018-03-15T07:06:59.148Z,2.20
2018-03-15T07:09:27.804Z,2.70
2018-03-15T07:11:55.567Z,2.17
2018-03-15T07:14:23.614Z,1.60
2018-03-15T07:16:52.248Z,1.90
2018-03-15T07:19:20.122Z,2.33
2018-03-15T07:21:48.956Z,2.63
2018-03-15T07:24:17.150Z,1.93
2018-03-15T07:26:45.796Z,1.80
2018-03-15T07:29:13.826Z,2.00
2018-03-15T07:31:41.476Z,1.80
2018-03-15T07:34:09.363Z,1.87
2018-03-15T07:36:37.434Z,2.47
2018-03-15T07:39:05.677Z,4.10
2018-03-15T07:41:33.855Z,2.03
2018-03-15T07:44:01.558Z,2.50
2018-03-15T07:46:30.185Z,1.87
2018-03-15T07:48:58.346Z,1.67
2018-03-15T07:51:26.172Z,1.80
2018-03-15T07:53:54.032Z,1.90
2018-03-15T07:56:22.085Z,4.00
2018-03-15T07:58:50.443Z,1.67
2018-03-15T08:01:18.314Z,2.30
2018-03-15T08:03:46.173Z,1.83
2018-03-15T08:06:13.980Z,2.77
2018-03-15T08:08:41.599Z,2.03
2018-03-15T08:11:09.584Z,2.33
2018-03-15T08:13:37.170Z,2.53
2018-03-15T08:16:04.836Z,3.73
2018-03-15T08:18:32.763Z,3.80
2018-03-15T08:21:00.737Z,3.77
2018-03-15T08:23:28.677Z,7.17
2018-03-15T08:25:56.605Z,8.23
2018-03-15T08:28:24.630Z,7.67
2018-03-15T08:30:52.488Z,9.50
2018-03-15T08:33:21.440Z,8.33
2018-03-15T08:35:49.274Z,8.57
2018-03-15T08:38:17.347Z,8.20
2018-03-15T08:40:45.323Z,7.47
2018-03-15T08:43:13.044Z,10.77
2018-03-15T08:45:41.335Z,7.57
2018-03-15T08:48:09.985Z,6.87
2018-03-15T08:50:37.717Z,8.00
2018-03-15T08:53:05.407Z,7.90
2018-03-15T08:55:33.110Z,10.63
2018-03-15T08:58:01.267Z,7.37
2018-03-15T09:00:29.208Z,7.70
2018-03-15T09:02:56.929Z,7.10
2018-03-15T09:05:24.876Z,7.83
2018-03-15T09:07:53.164Z,6.20
2018-03-15T09:10:21.161Z,7.20
2018-03-15T09:12:48.944Z,6.50
2018-03-15T09:15:16.682Z,6.10
2018-03-15T09:17:44.361Z,7.20
2018-03-15T09:20:12.495Z,6.10
2018-03-15T09:22:40.431Z,5.13
2018-03-15T09:25:09.028Z,5.63
2018-03-15T09:27:37.006Z,6.27
2018-03-15T09:30:05.144Z,6.10
2018-03-15T09:32:33.265Z,5.17
2018-03-15T09:35:01.165Z,5.23
2018-03-15T09:37:30.779Z,5.90
2018-03-15T09:39:58.398Z,5.00
2018-03-15T09:42:27.089Z,4.90
2018-03-15T09:44:55.617Z,5.30
2018-03-15T09:47:23.271Z,4.70
2018-03-15T09:49:51.647Z,5.47
2018-03-15T09:52:19.650Z,4.60
2018-03-15T09:54:48.453Z,4.30
2018-03-15T09:57:16.969Z,3.90
2018-03-15T09:59:45.071Z,3.90
2018-03-15T10:02:13.075Z,4.17
2018-03-15T10:04:41.060Z,4.20
2018-03-15T10:07:08.779Z,3.93
2018-03-15T10:09:36.701Z,3.50
2018-03-15T10:12:04.519Z,3.40
2018-03-15T10:14:33.473Z,12.40
2018-03-15T10:17:01.643Z,15.50
2018-03-15T10:19:30.687Z,33.70
2018-03-15T10:21:58.834Z,22.60
2018-03-15T10:24:26.628Z,25.67
2018-03-15T10:26:56.302Z,27.10
2018-03-15T10:29:24.387Z,25.97
2018-03-15T10:31:52.144Z,27.80
2018-03-15T10:34:19.869Z,24.93
2018-03-15T10:36:48.326Z,28.33
2018-03-15T10:39:15.909Z,25.57
2018-03-15T10:41:43.885Z,24.00
2018-03-15T10:44:12.926Z,25.65
2018-03-15T10:46:41.659Z,21.97
2018-03-15T10:49:09.624Z,23.23
2018-03-15T10:51:37.459Z,24.77
2018-03-15T10:54:05.295Z,24.97
2018-03-15T10:56:33.277Z,32.00
2018-03-15T10:59:01.514Z,26.80
2018-03-15T11:01:30.013Z,22.53
2018-03-15T11:03:57.654Z,24.17
2018-03-15T11:06:25.463Z,26.53
2018-03-15T11:08:53.576Z,24.03
2018-03-15T11:11:21.358Z,22.53
2018-03-15T11:13:49.357Z,20.97
2018-03-15T11:16:17.417Z,19.60
2018-03-15T11:18:45.357Z,18.80
2018-03-15T11:21:13.191Z,17.17
2018-03-15T11:23:40.925Z,18.87
2018-03-15T11:26:09.346Z,19.47
2018-03-15T11:28:37.201Z,22.80
2018-03-15T11:31:05.748Z,19.80
2018-03-15T11:33:33.321Z,21.53
2018-03-15T11:36:01.032Z,20.43
2018-03-15T11:38:29.800Z,17.63
2018-03-15T11:40:57.595Z,16.43
2018-03-15T11:43:25.542Z,15.60
2018-03-15T11:45:54.857Z,16.97
2018-03-15T11:48:22.499Z,19.63
2018-03-15T11:50:50.096Z,18.43
2018-03-15T11:53:17.901Z,21.70
2018-03-15T11:55:45.467Z,13.63
2018-03-15T11:58:13.360Z,15.20
2018-03-15T12:00:41.088Z,16.70
2018-03-15T12:03:08.997Z,16.40
2018-03-15T12:05:36.719Z,17.57
2018-03-15T12:08:04.370Z,12.10
2018-03-15T12:10:32.158Z,12.67
2018-03-15T12:12:59.710Z,14.33
2018-03-15T12:15:27.234Z,10.50
2018-03-15T12:17:54.831Z,14.47
2018-03-15T12:20:22.383Z,12.93
2018-03-15T12:22:49.910Z,15.57
2018-03-15T12:25:17.402Z,14.63
2018-03-15T12:27:45.065Z,12.00
2018-03-15T12:30:12.655Z,9.77
2018-03-15T12:32:40.601Z,10.20
2018-03-15T12:35:08.143Z,12.37
2018-03-15T12:37:35.938Z,10.67
2018-03-15T12:40:03.596Z,11.67
2018-03-15T12:42:31.254Z,10.30
2018-03-15T12:44:58.832Z,9.07
2018-03-15T12:47:27.126Z,8.90
2018-03-15T12:49:54.770Z,10.70
2018-03-15T12:52:22.416Z,11.73
2018-03-15T12:54:50.251Z,9.73
2018-03-15T12:57:17.831Z,11.67
2018-03-15T12:59:45.387Z,12.37
2018-03-15T13:02:13.191Z,9.63
2018-03-15T13:04:40.966Z,10.93
2018-03-15T13:07:08.604Z,8.83
2018-03-15T13:09:36.275Z,18.13
2018-03-15T13:12:03.807Z,18.30
2018-03-15T13:14:31.492Z,140.80
2018-03-15T13:16:58.985Z,110.07
2018-03-15T13:19:26.605Z,120.10
2018-03-15T13:21:54.225Z,97.07
2018-03-15T13:24:21.806Z,94.37
2018-03-15T13:26:49.337Z,88.50
2018-03-15T13:29:17.588Z,86.27
2018-03-15T13:31:45.141Z,75.20
2018-03-15T13:34:12.715Z,63.27
2018-03-15T13:36:40.975Z,59.23
2018-03-15T13:39:08.937Z,45.73
2018-03-15T13:41:36.838Z,49.50
2018-03-15T13:44:04.508Z,52.43
2018-03-15T13:46:32.102Z,45.33
2018-03-15T13:48:59.702Z,40.93
2018-03-15T13:51:27.458Z,29.00
2018-03-15T13:53:55.139Z,36.57
2018-03-15T13:56:22.711Z,24.03
2018-03-15T13:58:50.270Z,22.57
2018-03-15T14:01:18.612Z,26.00
2018-03-15T14:03:46.126Z,16.47
2018-03-15T14:06:14.031Z,17.97
2018-03-15T14:08:41.814Z,17.67
2018-03-15T14:11:09.327Z,17.40
2018-03-15T14:13:37.652Z,17.77
2018-03-15T14:16:05.602Z,15.10
2018-03-15T14:18:33.581Z,14.00
2018-03-15T14:21:01.747Z,14.20
2018-03-15T14:23:29.370Z,12.90
2018-03-15T14:25:56.902Z,12.67
2018-03-15T14:28:25.165Z,15.53
2018-03-15T14:30:53.008Z,16.03
2018-03-15T14:33:21.337Z,10.30
2018-03-15T14:35:49.037Z,9.37
2018-03-15T14:38:16.839Z,10.87
2018-03-15T14:40:44.603Z,10.90
2018-03-15T14:43:12.323Z,7.97
2018-03-15T14:45:40.414Z,9.30
2018-03-15T14:48:08.968Z,11.13
2018-03-15T14:50:38.258Z,11.10
2018-03-15T14:53:06.536Z,8.17
2018-03-15T14:55:34.489Z,9.90
2018-03-15T14:58:02.278Z,6.70
2018-03-15T15:00:30.381Z,10.63
2018-03-15T15:02:58.000Z,9.13
2018-03-15T15:05:26.070Z,9.30
2018-03-15T15:07:54.011Z,14.30
2018-03-15T15:10:23.110Z,13.90
2018-03-15T15:12:50.974Z,12.77
2018-03-15T15:15:18.896Z,10.13
2018-03-15T15:17:47.394Z,8.13
2018-03-15T15:20:15.380Z,7.20
2018-03-15T15:22:44.317Z,10.40
2018-03-15T15:25:12.284Z,10.97
2018-03-15T15:27:40.270Z,11.73
2018-03-15T15:30:08.041Z,7.37
2018-03-15T15:32:35.721Z,8.50
2018-03-15T15:35:03.403Z,9.50
2018-03-15T15:37:32.100Z,9.23
2018-03-15T15:39:59.959Z,7.80
2018-03-15T15:42:27.857Z,7.17
2018-03-15T15:44:55.504Z,9.57
2018-03-15T15:47:23.355Z,6.57
2018-03-15T15:49:51.070Z,11.60
2018-03-15T15:52:19.094Z,9.10
2018-03-15T15:54:46.934Z,8.33
2018-03-15T15:57:15.599Z,8.40
2018-03-15T15:59:43.822Z,9.90
2018-03-15T16:02:12.722Z,9.03
2018-03-15T16:04:40.631Z,9.03
2018-03-15T16:07:08.388Z,10.80
2018-03-15T16:09:36.226Z,9.13
2018-03-15T16:12:04.468Z,12.13
2018-03-15T16:14:32.554Z,10.60
2018-03-15T16:17:00.754Z,10.63
2018-03-15T16:19:29.186Z,9.67
2018-03-15T16:21:57.021Z,11.20
2018-03-15T16:24:25.691Z,14.77
2018-03-15T16:26:53.477Z,15.10
2018-03-15T16:29:21.923Z,16.37
2018-03-15T16:31:49.958Z,12.97
2018-03-15T16:34:17.754Z,14.77
2018-03-15T16:36:46.390Z,10.00
2018-03-15T16:39:15.223Z,9.80
2018-03-15T16:41:43.056Z,13.83
2018-03-15T16:44:10.957Z,10.73
2018-03-15T16:46:39.632Z,15.53
2018-03-15T16:49:07.514Z,16.37
2018-03-15T16:51:35.394Z,17.07
2018-03-15T16:54:03.570Z,20.00
2018-03-15T16:56:31.419Z,22.83
2018-03-15T16:58:59.417Z,21.40
2018-03-15T17:01:27.394Z,19.83
2018-03-15T17:03:55.483Z,16.07
2018-03-15T17:06:23.214Z,18.23
2018-03-15T17:08:51.363Z,15.70
2018-03-15T17:11:19.479Z,15.17
2018-03-15T17:13:47.360Z,14.30
2018-03-15T17:16:17.351Z,12.10
2018-03-15T17:18:45.343Z,17.03
2018-03-15T17:21:13.229Z,11.67
2018-03-15T17:23:41.605Z,13.67
2018-03-15T17:26:09.515Z,15.30
2018-03-15T17:28:37.559Z,11.47
2018-03-15T17:31:06.322Z,15.37
2018-03-15T17:33:36.086Z,11.60
2018-03-15T17:36:03.922Z,9.90
2018-03-15T17:38:31.945Z,15.33
2018-03-15T17:40:59.599Z,7.93
2018-03-15T17:43:27.585Z,12.70
2018-03-15T17:45:55.372Z,11.07
2018-03-15T17:48:23.860Z,9.03
2018-03-15T17:50:51.941Z,7.20
2018-03-15T17:53:19.753Z,12.10
2018-03-15T17:55:49.202Z,8.80
2018-03-15T17:58:16.916Z,13.50
2018-03-15T18:00:44.638Z,9.67
2018-03-15T18:03:12.694Z,9.50
2018-03-15T18:05:41.609Z,9.47
2018-03-15T18:08:10.171Z,11.33
2018-03-15T18:10:38.833Z,9.37
2018-03-15T18:13:07.542Z,7.47
2018-03-15T18:15:35.565Z,15.70
2018-03-15T18:18:03.717Z,9.17
2018-03-15T18:20:32.680Z,12.33
2018-03-15T18:23:00.521Z,7.60
2018-03-15T18:25:29.240Z,8.43
2018-03-15T18:27:58.134Z,10.97
2018-03-15T18:30:26.700Z,14.43
2018-03-15T18:32:54.597Z,8.90
2018-03-15T18:35:22.371Z,11.83
2018-03-15T18:37:51.052Z,11.77
2018-03-15T18:40:18.906Z,9.67
2018-03-15T18:42:46.690Z,13.10
2018-03-15T18:45:14.933Z,15.17
2018-03-15T18:47:44.253Z,7.70
2018-03-15T18:50:12.123Z,8.10
2018-03-15T18:52:39.807Z,12.93
2018-03-15T18:55:08.852Z,7.87
2018-03-15T18:57:36.698Z,10.10
2018-03-15T19:00:04.567Z,14.47
2018-03-15T19:02:33.981Z,10.17
2018-03-15T19:05:03.967Z,9.53
2018-03-15T19:07:31.976Z,9.83
2018-03-15T19:09:59.961Z,12.43
2018-03-15T19:12:28.232Z,10.47
2018-03-15T19:14:56.788Z,9.67
2018-03-15T19:17:24.480Z,10.63
2018-03-15T19:19:52.541Z,9.60
2018-03-15T19:22:20.475Z,12.20
2018-03-15T19:24:48.514Z,9.03
2018-03-15T19:27:16.419Z,7.30
2018-03-15T19:29:46.232Z,10.83
2018-03-15T19:32:13.842Z,12.40
2018-03-15T19:34:42.392Z,9.17
2018-03-15T19:37:11.023Z,9.70
2018-03-15T19:39:40.174Z,10.73
2018-03-15T19:42:09.281Z,15.83
2018-03-15T19:44:37.923Z,8.83
2018-03-15T19:47:06.052Z,10.60
2018-03-15T19:49:33.976Z,9.73
2018-03-15T19:52:02.793Z,9.00
2018-03-15T19:54:31.799Z,8.97
2018-03-15T19:57:00.025Z,10.20
2018-03-15T19:59:28.187Z,8.90
2018-03-15T20:01:56.961Z,9.80
2018-03-15T20:04:24.649Z,11.27
2018-03-15T20:09:30.220Z,11.73
2018-03-15T20:11:59.151Z,10.63
2018-03-15T20:14:28.159Z,18.03
2018-03-15T20:16:56.244Z,10.30
2018-03-15T20:19:24.254Z,10.87
2018-03-15T20:21:52.704Z,8.03
2018-03-15T20:24:20.914Z,7.50
2018-03-15T20:26:49.354Z,12.60
2018-03-15T20:29:17.485Z,8.00
2018-03-15T20:31:45.248Z,8.40
2018-03-15T20:34:13.652Z,6.80
2018-03-15T20:36:41.424Z,15.10
2018-03-15T20:39:10.223Z,5.23
2018-03-15T20:41:38.797Z,6.90
2018-03-15T20:44:06.942Z,11.80
2018-03-15T20:46:34.801Z,8.07
2018-03-15T20:49:02.449Z,6.93
2018-03-15T20:51:30.251Z,9.37
2018-03-15T20:53:58.619Z,10.87
2018-03-15T20:56:26.669Z,8.00
2018-03-15T20:58:54.703Z,6.60
2018-03-15T21:01:23.442Z,7.30
2018-03-15T21:03:52.441Z,10.60
2018-03-15T21:06:20.790Z,6.23
2018-03-15T21:08:50.651Z,12.53
2018-03-15T21:11:18.441Z,5.07
2018-03-15T21:13:46.705Z,8.00
2018-03-15T21:16:15.202Z,6.93
2018-03-15T21:18:43.561Z,8.70
2018-03-15T21:21:12.127Z,8.37
2018-03-15T21:23:41.781Z,12.57
2018-03-15T21:26:10.420Z,6.40
2018-03-15T21:28:39.073Z,9.23
2018-03-15T21:31:07.701Z,7.33
2018-03-15T21:33:35.458Z,6.27
2018-03-15T21:36:03.432Z,6.37
2018-03-15T21:38:31.580Z,11.70
2018-03-15T21:40:59.719Z,9.63
2018-03-15T21:43:29.109Z,7.80
2018-03-15T21:45:58.273Z,5.90
2018-03-15T21:48:27.188Z,11.83
2018-03-15T21:50:55.749Z,5.97
2018-03-15T21:53:23.672Z,7.33
2018-03-15T21:55:51.561Z,7.57
2018-03-15T21:58:19.979Z,12.80
2018-03-15T22:00:48.053Z,7.23
2018-03-15T22:03:16.425Z,8.37
2018-03-15T22:05:44.190Z,7.80
2018-03-15T22:08:12.466Z,7.47
2018-03-15T22:10:41.060Z,7.83
2018-03-15T22:13:08.919Z,5.63
2018-03-15T22:15:37.162Z,6.07
2018-03-15T22:18:05.249Z,8.50
2018-03-15T22:20:33.618Z,5.87
2018-03-15T22:23:01.594Z,7.20
2018-03-15T22:25:30.067Z,8.17
2018-03-15T22:27:57.966Z,9.97
2018-03-15T22:30:25.904Z,8.77
2018-03-15T22:32:54.537Z,6.63
2018-03-15T22:35:22.465Z,5.10
2018-03-15T22:37:50.744Z,7.87
2018-03-15T22:40:18.817Z,11.03
2018-03-15T22:42:46.725Z,4.50
2018-03-15T22:45:14.816Z,7.37
2018-03-15T22:47:42.633Z,6.87
2018-03-15T22:50:10.600Z,9.37
2018-03-15T22:52:38.785Z,7.30
2018-03-15T22:55:07.627Z,8.97
2018-03-15T22:57:36.947Z,10.40
2018-03-15T23:00:05.873Z,8.50
2018-03-15T23:02:34.837Z,8.80
2018-03-15T23:05:03.659Z,11.40
2018-03-15T23:07:33.255Z,8.60
2018-03-15T23:10:01.349Z,9.90
2018-03-15T23:12:30.817Z,9.00
2018-03-15T23:14:58.680Z,10.63
2018-03-15T23:17:26.726Z,10.63
2018-03-15T23:19:55.621Z,7.80
2018-03-15T23:22:23.547Z,8.20
2018-03-15T23:24:51.492Z,13.70
2018-03-15T23:27:19.761Z,6.30
2018-03-15T23:29:47.803Z,9.10
2018-03-15T23:32:16.206Z,6.87
2018-03-15T23:34:44.926Z,5.80
2018-03-15T23:37:14.462Z,5.07
2018-03-15T23:39:46.466Z,4.70
2018-03-15T23:44:49.090Z,11.53
2018-03-15T23:47:17.950Z,5.70
2018-03-15T23:49:47.379Z,5.30
2018-03-15T23:52:16.959Z,4.13
2018-03-15T23:54:46.117Z,4.53
2018-03-15T23:57:13.906Z,6.93
2018-03-15T23:59:42.781Z,7.80
